Artemus, Kentucky
Current Conditions -  °F | °C
As of 5:15 PM on Monday 24 Nov 2014 (Local Time) from K1A6 Reporting Station
Clear Clear  
Wind Chill: 62°   Ceiling: Unl
Heat Index: 62°   Visibility: 10mi
Dew Point: 42°   Wind: 9mph
Humidity: 47%   Direction: 270°W
Pressure: 29.8"   Gusts: NA
Location:  36.83°N, 83.84°W
Report Text: K1A6 242215Z AUTO 27008KT 10SM CLR 17/05 A2980 RMK AO2 LTG DSNT SE T01660053
Loading
Personal Weather Stations






























Interactive Weather Map New forecast layout! Learn more

10-Day Weather Forecast

Advertisements
Track Severe Weather on mobile